Tacoma Narrows Airport Tacoma US
ICAO: KTIW
IATA: TIW
Category: Medium
Scheduled Services: No

Elevation: 294 ft
TransAlt. 18000 ft.

Airport Communications:
SEATTLE APP/DEP:120.1
ATIS:124.05
CTAF:118.5
GND:121.8
TWR:118.5
UNICOM:122.95

KTIW Zoom In..

Runways:

(A) RW 17 length 5002 ft width 150 ft
ILS 109.10 / hdg 167

(B) RW 35 length 5002 ft width 150 ft
---- / hdg 347

Location; KTIW
Day. 31 / Time. 12.53 Zulu
* Altimeter: 30.00
* Temperature: 09° c. 48.2°f.
* Wind from: KTI° Speed W kn.
Dewpoint: 08° c.
Visibility: 10 Statute Miles.
Clouds: Overcast 2100 ft.

KTIW 311253Z AUTO 20009KT 10SM OVC021 09/08 A3000 RMK AO2 SLP160 T00890078


Wind From KTI°
Speed W kn.

 
 
jpsmedia worldairports.se 2020   terms of use